Time;durP1;ratioP1;P1;durP2;ratioP2;P2;SDS_P1;SDS_P2;PMS_P1;PMS_P2;Temp;Humidity;BMP_temperature;BMP_pressure;BME280_temperature;BME280_humidity;BME280_pressure;Samples;Min_cycle;Max_cycle;Signal;HPM_P1;HPM_P2
2022/01/30 00:01:53;;;;;;;18.35;4.10;;;5.20;99.90;;;;;;5048059;28;20520;-77
2022/01/30 00:04:20;;;;;;;16.88;4.20;;;5.20;99.90;;;;;;5054016;28;20056;-75
2022/01/30 00:06:47;;;;;;;14.50;4.22;;;5.20;99.90;;;;;;5052949;28;20470;-77
2022/01/30 00:09:18;;;;;;;22.10;4.68;;;5.20;99.90;;;;;;5034338;28;20057;-74
2022/01/30 00:11:50;;;;;;;19.75;5.97;;;5.20;99.90;;;;;;5018480;28;20056;-74
2022/01/30 00:14:19;;;;;;;20.30;5.53;;;5.20;99.90;;;;;;5035410;28;20714;-75
2022/01/30 00:16:46;;;;;;;21.13;5.63;;;5.20;99.90;;;;;;5035512;28;20558;-76
2022/01/30 00:21:46;;;;;;;24.10;4.97;;;5.20;99.90;;;;;;5052778;28;20274;-75
2022/01/30 00:24:19;;;;;;;23.50;5.13;;;5.20;99.90;;;;;;5051581;28;20520;-75
2022/01/30 00:26:47;;;;;;;15.55;4.72;;;5.20;99.90;;;;;;5033733;28;20141;-76
2022/01/30 00:29:14;;;;;;;30.08;5.22;;;5.10;99.90;;;;;;5035110;28;20558;-75
2022/01/30 00:31:42;;;;;;;17.63;4.50;;;5.00;99.90;;;;;;5035264;28;20044;-75
2022/01/30 00:34:29;;;;;;;25.98;4.57;;;5.00;99.90;;;;;;5039541;28;20414;-76
2022/01/30 00:36:55;;;;;;;21.77;4.20;;;4.90;99.90;;;;;;5038338;28;20349;-75
2022/01/30 00:39:22;;;;;;;23.27;4.00;;;4.90;99.90;;;;;;5025991;28;20654;-75
2022/01/30 00:41:49;;;;;;;19.73;4.85;;;5.00;99.90;;;;;;5038635;28;20095;-75
2022/01/30 00:44:16;;;;;;;30.15;5.07;;;4.90;99.90;;;;;;5056082;28;20262;-76
2022/01/30 00:46:45;;;;;;;22.88;4.47;;;4.90;99.90;;;;;;5054597;28;20056;-75
2022/01/30 00:49:13;;;;;;;29.42;4.40;;;4.90;99.90;;;;;;5035500;28;20467;-75
2022/01/30 00:51:40;;;;;;;23.52;4.20;;;4.90;99.90;;;;;;5038581;28;20048;-74
2022/01/30 00:54:07;;;;;;;22.73;5.05;;;4.90;99.90;;;;;;5057937;28;20382;-75
2022/01/30 00:56:34;;;;;;;30.48;5.65;;;4.90;99.90;;;;;;5038495;28;20032;-75
2022/01/30 00:59:01;;;;;;;28.15;4.15;;;4.90;99.90;;;;;;5038454;28;20063;-77
2022/01/30 01:01:28;;;;;;;31.80;4.78;;;5.00;99.90;;;;;;5036051;28;20159;-74
2022/01/30 01:03:55;;;;;;;27.83;4.38;;;4.90;99.90;;;;;;5052351;22;20534;-70
2022/01/30 01:06:21;;;;;;;25.20;5.32;;;4.90;99.90;;;;;;5032370;28;20128;-71
2022/01/30 01:14:06;;;;;;;24.70;4.53;;;5.00;99.90;;;;;;5042299;28;20151;-71
2022/01/30 01:24:49;;;;;;;;;;;4.90;99.90;;;;;;5006259;28;20042;-72
2022/01/30 01:27:16;;;;;;;27.02;5.20;;;5.00;99.90;;;;;;4989280;28;20016;-71
2022/01/30 01:29:42;;;;;;;27.60;5.05;;;4.90;99.90;;;;;;5023582;28;20103;-72
2022/01/30 01:32:09;;;;;;;34.53;6.28;;;5.00;99.90;;;;;;4988383;28;20072;-71
2022/01/30 01:34:38;;;;;;;29.95;4.75;;;5.00;99.90;;;;;;5020827;28;20056;-72
2022/01/30 01:37:09;;;;;;;33.47;5.45;;;5.00;99.90;;;;;;5022837;28;20132;-72
2022/01/30 01:39:41;;;;;;;24.88;4.13;;;5.00;99.90;;;;;;5040011;28;20049;-72
2022/01/30 01:42:08;;;;;;;32.05;5.07;;;4.90;99.90;;;;;;5023692;28;20700;-72
2022/01/30 01:44:41;;;;;;;27.77;5.65;;;5.00;99.90;;;;;;5028636;28;20053;-73
2022/01/30 01:47:10;;;;;;;29.70;6.45;;;4.90;99.90;;;;;;5032287;28;20056;-72
2022/01/30 01:49:38;;;;;;;26.20;5.05;;;4.90;99.90;;;;;;5045519;28;20074;-73
2022/01/30 01:52:19;;;;;;;28.52;5.38;;;4.90;99.90;;;;;;5028137;28;20653;-73
2022/01/30 01:54:49;;;;;;;33.92;6.10;;;4.90;99.90;;;;;;5008576;28;20092;-72
2022/01/30 01:57:16;;;;;;;23.77;5.30;;;4.80;99.90;;;;;;5023857;28;20128;-72
2022/01/30 01:59:56;;;;;;;30.52;5.60;;;4.80;99.90;;;;;;5005130;28;20060;-72
2022/01/30 02:02:41;;;;;;;35.25;5.85;;;4.80;99.90;;;;;;5045626;28;20710;-71
2022/01/30 02:05:09;;;;;;;32.25;5.57;;;4.90;99.90;;;;;;5023308;28;20458;-73
2022/01/30 02:10:07;;;;;;;29.08;5.97;;;4.90;99.90;;;;;;5027352;28;20053;-72
2022/01/30 02:12:46;;;;;;;35.47;7.05;;;4.80;99.90;;;;;;5021519;28;20490;-73
2022/01/30 02:26:01;;;;;;;23.02;5.50;;;4.80;99.90;;;;;;5042016;28;20192;-72
2022/01/30 02:28:31;;;;;;;22.30;5.47;;;4.70;99.90;;;;;;5023508;28;20576;-72
2022/01/30 02:31:02;;;;;;;23.73;5.85;;;4.70;99.90;;;;;;5023699;28;20517;-72
2022/01/30 02:33:29;;;;;;;24.17;5.03;;;4.70;99.90;;;;;;5030747;28;20064;-72
2022/01/30 02:35:56;;;;;;;24.52;6.07;;;4.70;99.90;;;;;;5034133;28;20045;-72
2022/01/30 02:38:24;;;;;;;21.42;4.57;;;4.70;99.90;;;;;;5035160;28;20108;-71
2022/01/30 02:40:54;;;;;;;35.20;5.70;;;4.60;99.90;;;;;;5023217;28;20072;-72
2022/01/30 02:43:27;;;;;;;29.67;5.35;;;4.60;99.90;;;;;;5049765;28;20549;-73
2022/01/30 02:48:52;;;;;;;29.25;5.47;;;4.60;99.90;;;;;;5002144;28;20056;-73
2022/01/30 02:51:21;;;;;;;21.00;4.18;;;4.50;99.90;;;;;;5003400;28;20437;-72
2022/01/30 02:54:02;;;;;;;25.17;5.75;;;4.40;99.90;;;;;;5026800;28;20140;-72
2022/01/30 02:56:35;;;;;;;22.42;4.97;;;4.40;99.90;;;;;;5007261;28;20120;-72
2022/01/30 02:59:01;;;;;;;23.75;5.18;;;4.40;99.90;;;;;;5007084;28;20135;-72
2022/01/30 03:01:28;;;;;;;21.23;4.88;;;4.40;99.90;;;;;;5022624;28;20044;-73
2022/01/30 03:03:55;;;;;;;19.77;4.80;;;4.40;99.90;;;;;;5023588;28;20060;-71
2022/01/30 03:06:22;;;;;;;20.83;4.45;;;4.40;99.90;;;;;;5016308;28;20114;-72
2022/01/30 03:08:49;;;;;;;17.60;3.95;;;4.40;99.90;;;;;;5013171;28;20541;-72
2022/01/30 03:11:16;;;;;;;31.15;5.75;;;4.40;99.90;;;;;;5039169;28;20045;-72
2022/01/30 03:13:43;;;;;;;19.67;5.10;;;4.40;99.90;;;;;;5022459;28;20523;-71
2022/01/30 03:16:09;;;;;;;25.02;4.97;;;4.40;99.90;;;;;;5022661;28;20041;-72
2022/01/30 03:18:36;;;;;;;14.13;5.63;;;4.40;99.90;;;;;;5022383;28;20051;-73
2022/01/30 03:21:04;;;;;;;19.98;5.65;;;4.40;99.90;;;;;;5023163;28;20052;-72
2022/01/30 03:23:31;;;;;;;34.83;5.65;;;4.40;99.90;;;;;;5006836;28;20060;-73
2022/01/30 03:25:59;;;;;;;18.38;4.63;;;4.30;99.90;;;;;;5022977;28;20045;-72
2022/01/30 03:28:45;;;;;;;26.33;5.47;;;4.40;99.90;;;;;;4994887;28;20063;-72
2022/01/30 03:31:21;;;;;;;17.92;5.28;;;4.40;99.90;;;;;;5022779;28;20502;-73
2022/01/30 03:33:49;;;;;;;20.77;4.45;;;4.40;99.90;;;;;;5023016;28;20053;-72
2022/01/30 03:36:21;;;;;;;20.38;4.97;;;4.40;99.90;;;;;;5023701;28;20071;-73
2022/01/30 03:38:48;;;;;;;14.27;4.70;;;4.40;99.90;;;;;;5004279;28;20056;-71
2022/01/30 03:41:16;;;;;;;18.27;4.40;;;4.30;99.90;;;;;;5038824;28;20242;-72
2022/01/30 03:43:42;;;;;;;23.48;4.50;;;4.30;99.90;;;;;;5006316;28;20053;-72
2022/01/30 03:46:10;;;;;;;18.50;4.78;;;4.40;99.90;;;;;;5022742;28;20037;-72
2022/01/30 03:48:37;;;;;;;18.00;4.10;;;4.30;99.90;;;;;;5022216;28;20442;-72
2022/01/30 03:51:07;;;;;;;14.98;5.20;;;4.30;99.90;;;;;;5038197;28;20534;-72
2022/01/30 03:53:34;;;;;;;17.70;4.50;;;4.30;99.90;;;;;;5022734;28;20048;-71
2022/01/30 03:56:02;;;;;;;28.52;6.03;;;4.30;99.90;;;;;;5022018;28;20037;-72
2022/01/30 03:58:33;;;;;;;18.67;4.28;;;4.30;99.90;;;;;;5021929;28;20310;-72
2022/01/30 04:01:06;;;;;;;;;;;4.30;99.90;;;;;;5024170;28;20057;-71
2022/01/30 04:03:35;;;;;;;17.55;4.53;;;4.30;99.90;;;;;;5022808;28;19921;-72
2022/01/30 04:06:05;;;;;;;25.70;5.13;;;4.30;99.90;;;;;;5038984;28;20045;-72
2022/01/30 04:08:32;;;;;;;15.93;4.68;;;4.30;99.90;;;;;;5026015;28;20047;-72
2022/01/30 04:11:13;;;;;;;24.23;5.75;;;4.30;99.90;;;;;;5033936;28;20083;-72
2022/01/30 04:13:58;;;;;;;22.63;4.25;;;4.30;99.90;;;;;;5042887;28;20053;-72
2022/01/30 04:16:34;;;;;;;34.60;5.55;;;4.30;99.90;;;;;;5025545;28;20103;-72
2022/01/30 04:19:01;;;;;;;22.13;4.72;;;4.20;99.90;;;;;;5042729;28;20053;-73
2022/01/30 04:21:47;;;;;;;19.35;4.40;;;4.20;99.90;;;;;;5044116;28;20041;-71
2022/01/30 04:24:20;;;;;;;27.20;5.75;;;4.20;99.90;;;;;;5051031;28;20053;-71
2022/01/30 04:27:20;;;;;;;23.02;4.85;;;4.20;99.90;;;;;;5052557;28;20091;-73
2022/01/30 04:29:48;;;;;;;22.67;5.13;;;4.20;99.90;;;;;;5054329;28;20405;-73
2022/01/30 04:32:29;;;;;;;18.85;4.45;;;4.10;99.90;;;;;;5024897;28;20045;-73
2022/01/30 04:35:15;;;;;;;18.42;4.25;;;4.10;99.90;;;;;;5024508;28;20052;-72
2022/01/30 04:38:11;;;;;;;27.52;5.45;;;4.10;99.90;;;;;;5025008;28;20287;-72
2022/01/30 04:53:23;;;;;;;22.25;4.95;;;4.00;99.90;;;;;;5042307;28;20109;-72
2022/01/30 05:02:09;;;;;;;28.70;4.35;;;4.00;99.90;;;;;;5024777;28;20052;-71
2022/01/30 05:05:39;;;;;;;27.17;6.55;;;3.90;99.90;;;;;;5016942;28;20256;-72
2022/01/30 05:08:14;;;;;;;34.60;4.97;;;4.00;99.90;;;;;;5009272;28;20650;-72
2022/01/30 05:11:01;;;;;;;17.20;4.43;;;3.90;99.90;;;;;;5015628;28;20099;-71
2022/01/30 05:13:54;;;;;;;25.55;5.32;;;4.00;99.90;;;;;;5005201;28;20200;-72
2022/01/30 05:16:50;;;;;;;21.10;4.82;;;3.90;99.90;;;;;;5006852;28;20045;-73
2022/01/30 05:19:43;;;;;;;27.90;6.63;;;3.90;99.90;;;;;;5027943;28;20056;-72
2022/01/30 05:22:22;;;;;;;26.02;5.65;;;3.90;99.90;;;;;;5022491;28;20045;-72
2022/01/30 05:25:03;;;;;;;17.75;3.83;;;3.90;99.90;;;;;;5030270;28;20064;-73
2022/01/30 05:27:36;;;;;;;24.50;4.60;;;3.90;99.90;;;;;;5023226;28;20102;-73
2022/01/30 05:30:27;;;;;;;33.58;5.82;;;3.90;99.90;;;;;;5034663;28;20053;-71
2022/01/30 05:33:01;;;;;;;26.93;4.00;;;3.90;99.90;;;;;;5025149;28;20061;-71
2022/01/30 05:35:47;;;;;;;18.13;4.75;;;3.90;99.90;;;;;;5008672;28;20156;-73
2022/01/30 05:38:37;;;;;;;32.88;5.78;;;3.90;99.90;;;;;;4998084;28;20306;-72
2022/01/30 05:41:24;;;;;;;19.48;4.28;;;3.90;99.90;;;;;;5031626;28;20079;-72
2022/01/30 05:44:18;;;;;;;21.75;4.57;;;3.90;99.90;;;;;;5040233;28;20143;-72
2022/01/30 05:47:38;;;;;;;13.45;4.00;;;3.80;99.90;;;;;;5023689;28;20386;-72
2022/01/30 05:50:16;;;;;;;17.77;4.00;;;3.80;99.90;;;;;;5057310;28;20147;-72
2022/01/30 05:53:02;;;;;;;25.88;5.20;;;3.80;99.90;;;;;;5048939;28;20059;-72
2022/01/30 05:55:37;;;;;;;23.98;3.20;;;3.70;99.90;;;;;;5029557;28;20257;-73
2022/01/30 05:58:04;;;;;;;29.13;5.15;;;3.70;99.90;;;;;;5038896;28;20139;-73
2022/01/30 06:00:48;;;;;;;17.45;3.83;;;3.60;99.90;;;;;;5024683;28;20056;-72
2022/01/30 06:03:15;;;;;;;24.35;5.00;;;3.60;99.90;;;;;;5014208;28;20494;-72
2022/01/30 06:05:45;;;;;;;23.50;3.92;;;3.50;99.90;;;;;;5021423;28;20037;-73
2022/01/30 06:08:37;;;;;;;22.58;4.47;;;3.40;99.90;;;;;;5005948;28;20142;-72
2022/01/30 06:10:59;;;;;;;25.90;4.20;;;3.40;99.90;;;;;;5040908;28;20149;-72
2022/01/30 06:13:26;;;;;;;23.30;4.47;;;3.30;99.90;;;;;;5011591;28;20044;-72
2022/01/30 06:15:53;;;;;;;18.33;3.80;;;3.30;99.90;;;;;;5005242;28;20106;-72
2022/01/30 06:18:19;;;;;;;31.02;4.07;;;3.30;99.90;;;;;;5019087;28;20410;-72
2022/01/30 06:21:05;;;;;;;17.45;4.47;;;3.30;99.90;;;;;;5038016;28;20072;-72
2022/01/30 06:23:52;;;;;;;30.45;4.38;;;3.30;99.90;;;;;;5020903;28;20048;-72
2022/01/30 06:26:37;;;;;;;29.23;3.85;;;3.30;99.90;;;;;;5038669;28;20582;-73
2022/01/30 06:29:36;;;;;;;26.42;4.38;;;3.30;99.90;;;;;;5038856;28;20056;-71
2022/01/30 06:32:33;;;;;;;25.13;5.53;;;3.40;99.90;;;;;;5026043;28;20415;-71
2022/01/30 06:35:21;;;;;;;19.15;4.15;;;3.50;99.90;;;;;;5023881;28;20499;-72
2022/01/30 06:38:10;;;;;;;31.88;7.60;;;3.50;99.90;;;;;;5022205;28;20051;-72
2022/01/30 06:41:09;;;;;;;26.85;4.25;;;3.50;99.90;;;;;;4981102;28;20045;-72
2022/01/30 06:43:54;;;;;;;;;;;3.50;99.90;;;;;;5025702;28;20060;-73
2022/01/30 06:46:53;;;;;;;33.35;5.00;;;3.50;99.90;;;;;;4994259;28;20347;-71
2022/01/30 06:49:28;;;;;;;24.88;3.85;;;3.50;99.90;;;;;;5039685;28;20056;-72
2022/01/30 06:52:25;;;;;;;14.10;4.22;;;3.40;99.90;;;;;;5036834;28;20423;-72
2022/01/30 06:55:21;;;;;;;;;;;3.40;99.90;;;;;;5040190;28;20037;-71
2022/01/30 06:58:26;;;;;;;21.08;3.25;;;3.40;99.90;;;;;;5038243;28;20014;-72
2022/01/30 07:01:26;;;;;;;28.83;3.40;;;3.30;99.90;;;;;;4963151;28;20140;-71
2022/01/30 07:04:25;;;;;;;23.98;5.22;;;3.20;99.90;;;;;;5043728;22;20195;-74
2022/01/30 07:07:14;;;;;;;23.95;4.47;;;3.20;99.90;;;;;;5024267;28;20449;-74
2022/01/30 07:09:41;;;;;;;21.00;3.92;;;3.20;99.90;;;;;;5046935;28;20051;-74
2022/01/30 07:12:08;;;;;;;31.88;7.10;;;3.30;99.90;;;;;;5051635;28;20087;-74
2022/01/30 07:14:35;;;;;;;25.95;4.43;;;3.30;99.90;;;;;;5049065;28;20079;-74
2022/01/30 07:17:02;;;;;;;28.75;3.65;;;3.30;99.90;;;;;;5041659;28;20135;-74
2022/01/30 07:19:28;;;;;;;28.48;4.72;;;3.30;99.90;;;;;;5060217;28;20048;-74
2022/01/30 07:21:55;;;;;;;26.88;4.45;;;3.30;99.90;;;;;;5059858;28;20144;-74
2022/01/30 07:24:22;;;;;;;30.02;5.45;;;3.30;99.90;;;;;;5033371;28;20226;-74
2022/01/30 07:26:49;;;;;;;34.08;4.80;;;3.30;99.90;;;;;;5058152;28;20443;-75
2022/01/30 07:29:15;;;;;;;33.00;4.90;;;3.20;99.90;;;;;;5060030;28;20147;-74
2022/01/30 07:31:42;;;;;;;34.65;5.88;;;3.20;99.90;;;;;;5059831;28;20127;-74
2022/01/30 07:34:09;;;;;;;21.75;4.22;;;3.10;99.90;;;;;;5042198;28;20048;-74
2022/01/30 07:36:37;;;;;;;22.42;3.95;;;3.10;99.90;;;;;;5024442;28;20172;-74
2022/01/30 07:39:06;;;;;;;21.45;4.78;;;3.00;99.90;;;;;;5036080;28;20135;-74
2022/01/30 07:41:33;;;;;;;25.10;4.80;;;3.10;99.90;;;;;;5061170;28;20574;-75
2022/01/30 07:44:01;;;;;;;23.02;4.80;;;3.10;99.90;;;;;;5049065;28;20056;-75
2022/01/30 07:46:29;;;;;;;30.00;4.28;;;3.00;99.90;;;;;;5048097;28;20032;-75
2022/01/30 07:48:57;;;;;;;34.97;4.88;;;3.10;99.90;;;;;;5067444;28;20533;-75
2022/01/30 07:51:23;;;;;;;29.25;5.55;;;3.10;99.90;;;;;;5070346;28;20489;-75
2022/01/30 07:53:50;;;;;;;34.88;5.05;;;3.20;99.90;;;;;;5044341;28;20055;-75
2022/01/30 07:56:17;;;;;;;27.10;6.43;;;3.30;99.90;;;;;;5046876;28;20052;-74
2022/01/30 07:58:43;;;;;;;29.05;4.93;;;3.30;99.90;;;;;;5075617;28;20155;-74
2022/01/30 08:01:10;;;;;;;39.33;5.47;;;3.40;99.90;;;;;;5078752;28;20077;-75
2022/01/30 08:03:37;;;;;;;27.90;6.03;;;3.40;99.90;;;;;;5047441;28;20493;-75
2022/01/30 08:06:04;;;;;;;23.23;4.95;;;3.50;99.90;;;;;;5049035;28;20048;-74
2022/01/30 08:08:31;;;;;;;33.78;7.80;;;3.50;99.90;;;;;;5063593;28;20556;-74
2022/01/30 08:10:57;;;;;;;35.45;5.80;;;3.50;99.90;;;;;;5054190;28;20277;-75
2022/01/30 08:13:24;;;;;;;36.92;5.38;;;3.40;99.90;;;;;;5027325;28;20051;-75
2022/01/30 08:15:51;;;;;;;38.05;6.05;;;3.50;99.90;;;;;;5057626;28;20099;-74
2022/01/30 08:18:18;;;;;;;32.33;6.25;;;3.50;99.90;;;;;;5048109;28;20052;-75
2022/01/30 08:20:44;;;;;;;27.52;5.40;;;3.50;99.90;;;;;;5065086;28;20514;-75
2022/01/30 08:23:13;;;;;;;15.85;4.13;;;3.50;99.90;;;;;;5067054;28;20046;-75
2022/01/30 08:25:40;;;;;;;33.60;6.07;;;3.50;99.90;;;;;;5058955;28;20055;-75
2022/01/30 08:28:07;;;;;;;23.40;4.80;;;3.60;99.90;;;;;;5065606;28;20135;-74
2022/01/30 08:30:34;;;;;;;38.53;7.35;;;3.60;99.90;;;;;;5048280;28;20071;-74
2022/01/30 08:33:02;;;;;;;35.25;7.05;;;3.60;99.90;;;;;;5048372;28;20494;-75
2022/01/30 08:35:30;;;;;;;39.78;8.73;;;3.60;99.90;;;;;;5031331;28;20134;-74
2022/01/30 08:37:58;;;;;;;43.28;7.72;;;3.60;99.90;;;;;;5066697;28;20481;-74
2022/01/30 08:40:25;;;;;;;31.30;4.85;;;3.60;99.90;;;;;;5064429;28;20043;-74
2022/01/30 08:42:52;;;;;;;38.80;6.60;;;3.70;99.90;;;;;;5028672;28;20084;-75
2022/01/30 08:45:20;;;;;;;34.92;6.03;;;3.70;99.90;;;;;;5048526;28;20128;-75
2022/01/30 08:47:49;;;;;;;29.48;6.50;;;3.70;99.90;;;;;;5064700;28;20439;-75
2022/01/30 08:50:18;;;;;;;32.90;6.30;;;3.70;99.90;;;;;;5065484;28;20144;-75
2022/01/30 08:52:45;;;;;;;49.58;8.25;;;3.70;99.90;;;;;;5064581;28;20336;-76
2022/01/30 08:55:13;;;;;;;40.63;7.30;;;3.70;99.90;;;;;;5062055;28;20052;-75
2022/01/30 08:57:39;;;;;;;29.40;7.57;;;3.60;99.90;;;;;;5061763;28;20040;-74
2022/01/30 09:00:13;;;;;;;46.28;8.65;;;3.50;99.90;;;;;;5063235;28;20048;-74
2022/01/30 09:02:40;;;;;;;51.03;7.90;;;3.40;99.90;;;;;;5043277;28;20303;-74
2022/01/30 09:05:09;;;;;;;55.92;8.18;;;3.40;99.90;;;;;;5042742;28;20116;-74
2022/01/30 09:07:38;;;;;;;54.50;7.75;;;3.30;99.90;;;;;;5060838;28;20648;-74
2022/01/30 09:10:07;;;;;;;34.65;6.80;;;3.40;99.90;;;;;;5053453;28;20517;-74
2022/01/30 09:12:34;;;;;;;42.28;7.32;;;3.40;99.90;;;;;;5041076;28;20084;-74
2022/01/30 09:15:04;;;;;;;52.63;8.63;;;3.40;99.90;;;;;;5026700;28;20056;-75
2022/01/30 09:17:31;;;;;;;33.88;6.32;;;3.60;99.90;;;;;;5060836;28;20127;-74
2022/01/30 09:19:58;;;;;;;42.58;7.97;;;3.60;99.90;;;;;;5041416;28;20037;-73
2022/01/30 09:22:25;;;;;;;44.25;9.40;;;3.60;99.90;;;;;;5050832;28;20444;-74
2022/01/30 09:24:52;;;;;;;24.15;6.80;;;3.70;99.90;;;;;;5061659;28;20111;-74
2022/01/30 09:27:19;;;;;;;28.95;7.30;;;3.60;99.90;;;;;;5061844;28;20157;-74
2022/01/30 09:29:45;;;;;;;48.92;8.02;;;3.70;99.90;;;;;;5081305;28;20132;-74
2022/01/30 09:32:12;;;;;;;30.40;7.93;;;3.70;99.90;;;;;;5082166;28;20593;-75
2022/01/30 09:34:39;;;;;;;34.53;8.80;;;3.70;99.90;;;;;;5082223;28;20075;-74
2022/01/30 09:37:07;;;;;;;54.58;10.18;;;3.80;99.90;;;;;;5079760;28;20167;-74
2022/01/30 09:39:34;;;;;;;42.80;10.82;;;3.90;99.90;;;;;;5024573;28;20598;-74
2022/01/30 09:42:01;;;;;;;46.05;9.70;;;3.90;99.90;;;;;;5061585;28;20155;-73
2022/01/30 09:44:28;;;;;;;50.40;8.75;;;4.00;99.90;;;;;;5044128;28;20044;-73
2022/01/30 09:46:54;;;;;;;51.47;9.30;;;4.10;99.90;;;;;;5043121;28;20522;-73
2022/01/30 09:49:25;;;;;;;41.92;8.45;;;4.00;99.90;;;;;;5061981;28;20044;-73
2022/01/30 09:51:53;;;;;;;54.45;11.25;;;4.10;99.90;;;;;;5061494;28;20139;-72
2022/01/30 09:54:20;;;;;;;47.53;9.45;;;4.10;99.90;;;;;;5061867;28;20049;-73
2022/01/30 09:56:47;;;;;;;34.17;9.40;;;4.20;99.90;;;;;;5060547;28;20059;-73
2022/01/30 09:59:15;;;;;;;45.58;9.90;;;4.30;99.90;;;;;;5044439;28;20040;-72
2022/01/30 10:01:42;;;;;;;59.20;10.90;;;4.40;99.90;;;;;;5061316;28;20045;-72
2022/01/30 10:04:09;;;;;;;39.90;10.63;;;4.50;99.90;;;;;;5082288;28;20502;-73
2022/01/30 10:07:12;;;;;;;43.78;10.80;;;4.60;99.90;;;;;;5052972;28;20052;-73
2022/01/30 10:09:44;;;;;;;36.63;11.40;;;4.60;99.90;;;;;;5028904;28;20076;-73
2022/01/30 10:12:19;;;;;;;49.00;10.75;;;4.50;99.90;;;;;;5059848;28;20139;-73
2022/01/30 10:15:15;;;;;;;55.28;9.43;;;4.40;99.90;;;;;;5040033;28;20571;-73
2022/01/30 10:17:49;;;;;;;41.75;10.20;;;4.50;99.90;;;;;;5046926;28;20521;-73
2022/01/30 10:20:38;;;;;;;41.70;10.30;;;4.40;99.90;;;;;;5058794;28;20063;-73
2022/01/30 10:23:09;;;;;;;45.85;10.60;;;4.30;99.90;;;;;;5053228;28;20461;-73
2022/01/30 10:25:49;;;;;;;37.63;10.70;;;4.20;99.90;;;;;;5051511;28;20737;-73
2022/01/30 10:28:20;;;;;;;43.63;9.25;;;4.20;99.90;;;;;;5036869;28;20076;-73
2022/01/30 10:30:50;;;;;;;59.97;11.45;;;4.20;99.90;;;;;;5052330;28;20044;-73
2022/01/30 10:33:19;;;;;;;54.08;10.25;;;4.20;99.90;;;;;;5052810;28;20549;-73
2022/01/30 10:35:58;;;;;;;51.95;11.85;;;4.20;99.90;;;;;;5055202;28;20104;-73
2022/01/30 10:38:36;;;;;;;40.47;9.77;;;4.20;99.90;;;;;;5037429;28;20044;-74
2022/01/30 10:41:14;;;;;;;45.83;10.35;;;4.30;99.90;;;;;;5058968;28;20071;-74
2022/01/30 10:44:19;;;;;;;54.92;12.35;;;4.30;99.90;;;;;;5056672;28;20067;-74
2022/01/30 10:46:48;;;;;;;48.67;11.13;;;4.40;99.90;;;;;;4961414;28;20148;-74
2022/01/30 10:49:16;;;;;;;50.50;11.20;;;4.40;99.90;;;;;;5032030;28;20060;-74
2022/01/30 10:51:56;;;;;;;53.95;11.18;;;4.50;99.90;;;;;;5042535;28;20048;-74
2022/01/30 10:54:26;;;;;;;35.30;10.32;;;4.50;99.90;;;;;;5042352;28;20094;-74
2022/01/30 10:57:11;;;;;;;55.90;12.55;;;4.50;99.90;;;;;;5060399;28;20052;-74
2022/01/30 10:59:43;;;;;;;;;;;4.50;99.90;;;;;;5062303;28;20514;-74
2022/01/30 11:02:12;;;;;;;50.10;10.57;;;4.50;99.90;;;;;;5058836;28;19928;-74
2022/01/30 11:04:39;;;;;;;45.40;10.68;;;4.50;99.90;;;;;;5041299;28;20048;-74
2022/01/30 11:07:06;;;;;;;49.22;11.35;;;4.50;99.90;;;;;;5060378;28;20056;-74
2022/01/30 11:09:38;;;;;;;46.55;11.48;;;4.40;99.90;;;;;;5052827;28;20053;-74
2022/01/30 11:12:11;;;;;;;43.50;11.75;;;4.40;99.90;;;;;;5042703;28;20167;-74
2022/01/30 11:17:08;;;;;;;47.10;11.32;;;4.50;99.90;;;;;;5079486;28;20506;-74
2022/01/30 11:19:41;;;;;;;46.85;10.98;;;4.50;99.90;;;;;;5063161;28;20032;-74
2022/01/30 11:22:10;;;;;;;36.60;9.65;;;4.50;99.90;;;;;;5080640;28;20131;-74
2022/01/30 11:24:45;;;;;;;40.33;9.75;;;4.60;99.90;;;;;;5045098;28;20048;-74
2022/01/30 11:27:18;;;;;;;41.63;10.43;;;4.50;99.90;;;;;;5059711;28;20068;-74
2022/01/30 11:29:45;;;;;;;40.38;11.18;;;4.60;99.90;;;;;;5043858;28;20697;-76
2022/01/30 11:32:13;;;;;;;50.05;12.23;;;4.60;99.90;;;;;;5060658;28;20048;-75
2022/01/30 11:34:41;;;;;;;60.38;14.18;;;4.50;99.90;;;;;;5060806;28;20199;-75
2022/01/30 11:37:10;;;;;;;51.88;13.50;;;4.60;99.90;;;;;;5041508;28;20076;-74
2022/01/30 11:39:45;;;;;;;52.70;12.93;;;4.60;99.90;;;;;;5034645;28;20486;-73
2022/01/30 11:42:23;;;;;;;53.03;12.60;;;4.60;99.90;;;;;;5025972;28;20114;-74
2022/01/30 11:45:05;;;;;;;51.50;12.27;;;4.70;99.90;;;;;;5021658;28;20041;-73
2022/01/30 11:47:58;;;;;;;51.20;11.18;;;4.70;99.90;;;;;;5027773;28;20048;-74
2022/01/30 11:50:30;;;;;;;50.58;12.55;;;4.70;99.90;;;;;;5022171;28;20099;-74
2022/01/30 11:53:08;;;;;;;42.17;12.10;;;4.70;99.90;;;;;;5040834;28;20089;-74
2022/01/30 11:55:57;;;;;;;38.22;11.80;;;4.80;99.90;;;;;;5039691;28;20156;-74
2022/01/30 11:58:33;;;;;;;45.17;12.80;;;4.70;99.90;;;;;;5059722;28;20260;-74
2022/01/30 12:01:19;;;;;;;51.83;15.07;;;4.60;99.90;;;;;;5042426;28;20449;-74
2022/01/30 12:03:52;;;;;;;32.15;13.35;;;4.70;99.90;;;;;;5060048;28;20047;-74
2022/01/30 12:06:19;;;;;;;45.08;13.77;;;4.70;99.90;;;;;;5058069;28;20637;-74
2022/01/30 12:08:48;;;;;;;47.70;14.25;;;4.70;99.90;;;;;;5059165;28;20130;-75
2022/01/30 12:11:36;;;;;;;40.13;14.65;;;4.80;99.90;;;;;;5051047;28;20076;-74
2022/01/30 12:14:12;;;;;;;52.15;16.30;;;4.80;99.90;;;;;;5038612;28;20052;-74
2022/01/30 12:16:49;;;;;;;39.50;14.77;;;4.90;99.90;;;;;;5023511;28;20131;-74
2022/01/30 12:19:29;;;;;;;34.13;14.65;;;4.80;99.90;;;;;;5057014;28;20200;-74
2022/01/30 12:21:56;;;;;;;42.95;14.60;;;4.80;99.90;;;;;;5073242;28;20337;-74
2022/01/30 12:24:28;;;;;;;42.50;16.10;;;4.90;99.90;;;;;;5038437;28;20080;-74
2022/01/30 12:27:02;;;;;;;61.65;15.27;;;4.90;99.90;;;;;;5056871;28;20608;-74
2022/01/30 12:29:40;;;;;;;36.28;14.73;;;4.90;99.90;;;;;;5043417;28;20049;-74
2022/01/30 12:32:22;;;;;;;39.53;15.57;;;4.90;99.90;;;;;;5036476;28;20290;-74
2022/01/30 12:34:54;;;;;;;56.33;16.27;;;4.90;99.90;;;;;;5044072;28;20053;-74
2022/01/30 12:37:36;;;;;;;51.42;17.00;;;5.00;99.90;;;;;;5028142;28;20044;-74
2022/01/30 12:40:11;;;;;;;45.60;15.13;;;5.00;99.90;;;;;;5050211;28;20044;-74
2022/01/30 12:42:39;;;;;;;42.05;15.90;;;5.00;99.90;;;;;;5013148;28;20079;-75
2022/01/30 12:45:09;;;;;;;36.38;15.38;;;5.00;99.90;;;;;;5054776;28;20048;-75
2022/01/30 12:47:53;;;;;;;57.28;17.35;;;5.10;99.90;;;;;;5058383;28;20045;-74
2022/01/30 12:50:20;;;;;;;46.72;17.20;;;5.20;99.90;;;;;;5062366;28;20084;-74
2022/01/30 12:52:50;;;;;;;50.08;17.80;;;5.10;99.90;;;;;;5061721;28;20052;-74
2022/01/30 12:55:18;;;;;;;48.25;15.65;;;5.10;99.90;;;;;;5062383;28;20135;-75
2022/01/30 12:57:47;;;;;;;39.03;16.63;;;5.10;99.90;;;;;;5043468;28;20335;-74
2022/01/30 13:00:16;;;;;;;37.22;17.20;;;5.10;99.90;;;;;;5059825;28;20481;-74
2022/01/30 13:03:03;;;;;;;34.47;15.02;;;5.10;99.90;;;;;;5063769;28;20054;-74
2022/01/30 13:05:31;;;;;;;33.22;15.52;;;5.00;99.90;;;;;;5044189;22;20053;-77
2022/01/30 13:07:59;;;;;;;51.20;16.75;;;5.00;99.90;;;;;;5028451;28;20107;-72
2022/01/30 13:10:27;;;;;;;44.13;16.23;;;5.10;99.90;;;;;;5020942;28;20244;-73
2022/01/30 13:12:59;;;;;;;59.08;17.48;;;5.10;99.90;;;;;;5035450;28;20049;-74
2022/01/30 13:15:27;;;;;;;47.38;17.42;;;5.10;99.90;;;;;;5017665;28;20059;-74
2022/01/30 13:17:58;;;;;;;44.70;15.35;;;5.10;99.90;;;;;;5036029;28;20723;-74
2022/01/30 13:20:27;;;;;;;43.17;16.40;;;5.00;99.90;;;;;;5016615;28;20046;-74
2022/01/30 13:22:55;;;;;;;49.83;15.82;;;5.00;99.90;;;;;;5014463;28;20593;-76
2022/01/30 13:25:22;;;;;;;57.13;15.98;;;5.00;99.90;;;;;;4981154;28;20056;-73
2022/01/30 13:27:51;;;;;;;48.45;16.25;;;5.00;99.90;;;;;;5015865;28;20528;-73
2022/01/30 13:30:32;;;;;;;45.92;17.15;;;5.00;99.90;;;;;;4997206;28;20076;-73
2022/01/30 13:32:59;;;;;;;55.92;16.85;;;5.00;99.90;;;;;;5013895;28;20132;-76
2022/01/30 13:35:29;;;;;;;47.63;17.90;;;5.20;99.90;;;;;;4995020;28;20056;-75
2022/01/30 13:38:00;;;;;;;59.42;18.05;;;5.00;99.90;;;;;;5014708;28;20065;-76
2022/01/30 13:40:38;;;;;;;50.95;15.65;;;5.00;99.90;;;;;;4994616;28;20269;-72
2022/01/30 13:43:14;;;;;;;48.17;16.35;;;5.10;99.90;;;;;;5015637;28;20461;-74
2022/01/30 13:48:18;;;;;;;49.95;16.85;;;5.00;99.90;;;;;;4980576;28;20057;-72
2022/01/30 13:50:52;;;;;;;53.15;16.75;;;5.10;99.90;;;;;;5005614;28;20072;-70
2022/01/30 13:53:19;;;;;;;41.50;17.13;;;5.00;99.90;;;;;;5014451;28;20132;-74
2022/01/30 13:56:06;;;;;;;46.17;16.33;;;5.00;99.90;;;;;;4995110;28;20052;-72
2022/01/30 13:58:48;;;;;;;50.03;18.15;;;5.00;99.90;;;;;;4995841;28;20588;-72
2022/01/30 14:01:20;;;;;;;47.15;16.02;;;5.00;99.90;;;;;;4979039;28;20064;-71
2022/01/30 14:03:49;;;;;;;55.50;17.02;;;5.00;99.90;;;;;;4997119;28;20060;-71
2022/01/30 14:06:23;;;;;;;47.10;16.85;;;5.10;99.90;;;;;;4995860;28;20045;-71
2022/01/30 14:09:00;;;;;;;40.65;16.80;;;5.10;99.90;;;;;;4995417;28;20049;-71
2022/01/30 14:11:30;;;;;;;47.78;17.67;;;5.00;99.90;;;;;;4993580;28;20044;-71
2022/01/30 14:14:05;;;;;;;47.95;16.90;;;5.00;99.90;;;;;;5006780;28;20072;-72